Time;durP1;ratioP1;P1;durP2;ratioP2;P2;SDS_P1;SDS_P2;PMS_P1;PMS_P2;Temp;Humidity;BMP_temperature;BMP_pressure;BME280_temperature;BME280_humidity;BME280_pressure;Samples;Min_cycle;Max_cycle;Signal;HPM_P1;HPM_P2
2021/09/19 00:01:16;;;;;;;4.85;3.50;;;13.80;99.90;;;;;;6147378;23;20607;-71
2021/09/19 00:03:41;;;;;;;7.93;4.45;;;13.80;99.90;;;;;;6145251;23;20333;-71
2021/09/19 00:06:07;;;;;;;;;;;13.90;99.90;;;;;;6148753;23;20013;-71
2021/09/19 00:08:35;;;;;;;6.70;3.35;;;13.80;99.90;;;;;;6147613;23;19908;-71
2021/09/19 00:11:01;;;;;;;8.82;3.70;;;13.80;99.90;;;;;;6148862;23;20032;-71
2021/09/19 00:13:26;;;;;;;;;;;13.80;99.90;;;;;;6146935;23;20017;-71
2021/09/19 00:15:52;;;;;;;7.13;4.22;;;13.80;99.90;;;;;;6147361;23;19912;-71
2021/09/19 00:18:18;;;;;;;6.00;3.40;;;13.80;99.90;;;;;;6147104;23;20021;-72
2021/09/19 00:20:47;;;;;;;;;;;13.80;99.90;;;;;;6148429;23;20288;-72
2021/09/19 00:23:13;;;;;;;5.07;2.92;;;13.80;99.90;;;;;;6148585;23;19918;-72
2021/09/19 00:25:38;;;;;;;4.65;3.17;;;13.80;99.90;;;;;;6147457;23;20010;-72
2021/09/19 00:28:05;;;;;;;;;;;13.70;99.90;;;;;;6147507;23;20017;-72
2021/09/19 00:30:30;;;;;;;4.65;3.42;;;13.70;99.90;;;;;;6147698;23;19904;-71
2021/09/19 00:32:57;;;;;;;;;;;13.70;99.90;;;;;;6148812;23;20265;-72
2021/09/19 00:35:22;;;;;;;4.28;2.78;;;13.70;99.90;;;;;;6146917;23;19927;-72
2021/09/19 00:37:47;;;;;;;;;;;13.70;99.90;;;;;;6148921;23;20021;-71
2021/09/19 00:40:13;;;;;;;7.00;3.38;;;13.60;99.90;;;;;;6147848;23;20168;-72
2021/09/19 00:42:39;;;;;;;;;;;13.60;99.90;;;;;;6147443;23;20554;-71
2021/09/19 00:45:16;;;;;;;4.13;2.65;;;13.60;99.90;;;;;;6147609;23;19900;-72
2021/09/19 00:47:42;;;;;;;6.10;2.97;;;13.60;99.90;;;;;;6148116;23;20006;-71
2021/09/19 00:50:10;;;;;;;6.85;3.17;;;13.50;99.90;;;;;;6147598;23;20033;-72
2021/09/19 00:52:37;;;;;;;3.72;2.97;;;13.50;99.90;;;;;;6144753;23;20009;-72
2021/09/19 00:55:03;;;;;;;9.18;3.40;;;13.50;99.90;;;;;;6148549;23;20493;-72
2021/09/19 00:57:29;;;;;;;;;;;13.40;99.90;;;;;;6149492;23;20008;-72
2021/09/19 00:59:55;;;;;;;6.55;3.65;;;13.40;99.90;;;;;;6149735;23;19905;-72
2021/09/19 01:02:21;;;;;;;6.75;3.33;;;13.30;99.90;;;;;;6149210;23;20016;-72
2021/09/19 01:04:47;;;;;;;;;;;13.30;99.90;;;;;;6149260;23;20013;-72
2021/09/19 01:07:14;;;;;;;8.27;4.68;;;13.30;99.90;;;;;;6150715;23;20171;-72
2021/09/19 01:09:40;;;;;;;6.43;3.00;;;13.30;99.90;;;;;;6147348;23;19997;-72
2021/09/19 01:12:09;;;;;;;5.03;3.60;;;13.20;99.90;;;;;;6149852;23;20002;-72
2021/09/19 01:14:37;;;;;;;7.55;3.75;;;13.30;99.90;;;;;;6148302;23;20005;-72
2021/09/19 01:17:04;;;;;;;8.68;3.58;;;13.20;99.90;;;;;;6149713;23;19998;-72
2021/09/19 01:19:32;;;;;;;5.18;3.67;;;13.20;99.90;;;;;;6147466;23;20024;-72
2021/09/19 01:21:58;;;;;;;7.85;4.53;;;13.20;99.90;;;;;;6147368;23;20443;-72
2021/09/19 01:24:26;;;;;;;;;;;13.20;99.90;;;;;;6149205;23;20085;-72
2021/09/19 01:26:51;;;;;;;7.20;4.13;;;13.10;99.90;;;;;;6147050;23;19904;-72
2021/09/19 01:29:17;;;;;;;;;;;13.10;99.90;;;;;;6150126;23;20036;-72
2021/09/19 01:31:42;;;;;;;3.83;2.75;;;13.10;99.90;;;;;;6149061;23;20267;-72
2021/09/19 01:34:08;;;;;;;;;;;13.10;99.90;;;;;;6149119;23;20049;-72
2021/09/19 01:36:36;;;;;;;10.10;4.05;;;13.00;99.90;;;;;;6149530;23;19905;-72
2021/09/19 01:39:07;;;;;;;4.72;3.80;;;13.00;99.90;;;;;;6148633;23;19998;-72
2021/09/19 01:41:34;;;;;;;4.97;3.45;;;13.00;99.90;;;;;;6149301;23;20033;-72
2021/09/19 01:44:00;;;;;;;5.43;3.95;;;12.90;99.90;;;;;;6148821;23;20132;-72
2021/09/19 01:46:25;;;;;;;6.90;3.97;;;12.90;99.90;;;;;;6147788;23;20005;-72
2021/09/19 01:48:51;;;;;;;;;;;12.90;99.90;;;;;;6148729;23;20016;-72
2021/09/19 01:51:16;;;;;;;6.32;4.00;;;12.80;99.90;;;;;;6149398;23;19909;-72
2021/09/19 01:53:42;;;;;;;;;;;12.80;99.90;;;;;;6149299;23;20060;-72
2021/09/19 01:56:09;;;;;;;4.15;3.17;;;12.70;99.90;;;;;;6147145;23;19900;-72
2021/09/19 01:58:46;;;;;;;9.70;3.90;;;12.70;99.90;;;;;;6148785;23;20152;-72
2021/09/19 02:01:12;;;;;;;13.93;3.83;;;12.70;99.90;;;;;;6148900;23;20423;-72
2021/09/19 02:03:39;;;;;;;9.50;4.22;;;12.60;99.90;;;;;;6147798;23;20005;-72
2021/09/19 02:06:06;;;;;;;6.43;3.72;;;12.60;99.90;;;;;;6148216;23;20020;-72
2021/09/19 02:08:35;;;;;;;5.93;3.08;;;12.60;99.90;;;;;;6149438;23;20005;-72
2021/09/19 02:11:02;;;;;;;8.48;3.72;;;12.60;99.90;;;;;;6146097;23;20064;-72
2021/09/19 02:13:28;;;;;;;7.43;4.13;;;12.50;99.90;;;;;;6148479;23;20411;-72
2021/09/19 02:15:53;;;;;;;;;;;12.50;99.90;;;;;;6150353;23;20481;-73
2021/09/19 02:18:19;;;;;;;4.50;3.20;;;12.50;99.90;;;;;;6148113;23;20249;-73
2021/09/19 02:20:44;;;;;;;;;;;12.50;99.90;;;;;;6149945;23;20358;-73
2021/09/19 02:23:10;;;;;;;12.23;5.22;;;12.50;99.90;;;;;;6149595;23;19950;-73
2021/09/19 02:25:35;;;;;;;;;;;12.50;99.90;;;;;;6148647;23;20084;-73
2021/09/19 02:28:01;;;;;;;7.45;3.65;;;12.50;99.90;;;;;;6148295;23;20284;-73
2021/09/19 02:30:26;;;;;;;;;;;12.50;99.90;;;;;;6149151;23;20425;-73
2021/09/19 02:32:52;;;;;;;4.97;3.20;;;12.50;99.90;;;;;;6148774;23;20241;-73
2021/09/19 02:35:17;;;;;;;;;;;12.50;99.90;;;;;;6147836;23;20294;-73
2021/09/19 02:37:43;;;;;;;7.55;3.53;;;12.50;99.90;;;;;;6150099;23;20294;-73
2021/09/19 02:40:10;;;;;;;10.77;4.28;;;12.40;99.90;;;;;;6148746;23;19998;-73
2021/09/19 02:42:37;;;;;;;7.80;4.40;;;12.50;99.90;;;;;;6148282;23;20005;-73
2021/09/19 02:45:04;;;;;;;6.20;4.15;;;12.40;99.90;;;;;;6148184;23;20379;-73
2021/09/19 02:47:29;;;;;;;4.95;3.50;;;12.30;99.90;;;;;;6148319;23;20002;-73
2021/09/19 02:49:55;;;;;;;;;;;12.30;99.90;;;;;;6148842;23;20450;-73
2021/09/19 02:52:20;;;;;;;7.22;3.63;;;12.30;99.90;;;;;;6148744;23;20308;-73
2021/09/19 02:54:46;;;;;;;;;;;12.20;99.90;;;;;;6148094;23;20002;-74
2021/09/19 02:57:11;;;;;;;8.40;3.78;;;12.20;99.90;;;;;;6147687;23;19908;-72
2021/09/19 02:59:37;;;;;;;;;;;12.20;99.90;;;;;;6148010;23;20014;-73
2021/09/19 03:02:02;;;;;;;9.02;4.22;;;12.20;99.90;;;;;;6147169;23;19936;-73
2021/09/19 03:04:28;;;;;;;;;;;12.20;99.90;;;;;;6148113;23;20372;-73
2021/09/19 03:06:53;;;;;;;9.02;4.32;;;12.20;99.90;;;;;;6148946;23;19904;-73
2021/09/19 03:09:18;;;;;;;;;;;12.20;99.90;;;;;;6148789;23;20024;-73
2021/09/19 03:11:44;;;;;;;6.45;4.13;;;12.10;99.90;;;;;;6148907;23;19909;-73
2021/09/19 03:14:09;;;;;;;;;;;12.20;99.90;;;;;;6149461;23;20026;-73
2021/09/19 03:16:35;;;;;;;6.32;4.03;;;12.20;99.90;;;;;;6148059;23;19913;-73
2021/09/19 03:19:01;;;;;;;;;;;12.20;99.90;;;;;;6148242;23;20008;-73
2021/09/19 03:21:26;;;;;;;4.80;3.88;;;12.20;99.90;;;;;;6148267;23;19904;-73
2021/09/19 03:23:52;;;;;;;;;;;12.30;99.90;;;;;;6148448;23;20085;-73
2021/09/19 03:26:17;;;;;;;6.75;3.75;;;12.20;99.90;;;;;;6148742;23;19920;-73
2021/09/19 03:28:43;;;;;;;;;;;12.20;99.90;;;;;;6149412;23;20005;-73
2021/09/19 03:31:08;;;;;;;6.90;4.35;;;12.20;99.90;;;;;;6149079;23;19908;-73
2021/09/19 03:33:34;;;;;;;;;;;12.20;99.90;;;;;;6146816;23;20080;-74
2021/09/19 03:35:59;;;;;;;7.40;3.90;;;12.20;99.90;;;;;;6148318;23;19977;-73
2021/09/19 03:38:24;;;;;;;;;;;12.20;99.90;;;;;;6147039;23;20037;-73
2021/09/19 03:40:50;;;;;;;5.70;3.95;;;12.20;99.90;;;;;;6148764;23;19904;-73
2021/09/19 03:43:15;;;;;;;;;;;12.20;99.90;;;;;;6149171;23;20069;-73
2021/09/19 03:45:41;;;;;;;7.25;4.00;;;12.10;99.90;;;;;;6147673;23;20241;-73
2021/09/19 03:48:07;;;;;;;;;;;12.10;99.90;;;;;;6149632;23;20442;-73
2021/09/19 03:50:34;;;;;;;5.95;4.00;;;12.20;99.90;;;;;;6144813;23;20298;-72
2021/09/19 03:52:59;;;;;;;6.88;3.45;;;12.20;99.90;;;;;;6148126;23;20056;-73
2021/09/19 03:55:25;;;;;;;;;;;12.20;99.90;;;;;;6148287;23;20339;-73
2021/09/19 03:57:51;;;;;;;6.53;4.03;;;12.20;99.90;;;;;;6149470;23;19901;-73
2021/09/19 04:00:16;;;;;;;;;;;12.20;99.90;;;;;;6149450;23;20024;-73
2021/09/19 04:02:42;;;;;;;9.10;3.85;;;12.20;99.90;;;;;;6148000;23;19912;-73
2021/09/19 04:05:08;;;;;;;;;;;12.20;99.90;;;;;;6147550;23;20386;-73
2021/09/19 04:07:34;;;;;;;5.15;3.47;;;12.20;99.90;;;;;;6147699;23;19908;-73
2021/09/19 04:09:59;;;;;;;;;;;12.10;99.90;;;;;;6147003;23;20013;-73
2021/09/19 04:12:25;;;;;;;7.75;3.95;;;12.10;99.90;;;;;;6147271;23;19943;-73
2021/09/19 04:14:50;;;;;;;;;;;12.10;99.90;;;;;;6147887;23;20439;-74
2021/09/19 04:17:16;;;;;;;8.18;4.53;;;12.10;99.90;;;;;;6149045;23;19915;-73
2021/09/19 04:19:41;;;;;;;;;;;12.10;99.90;;;;;;6148439;23;20001;-73
2021/09/19 04:22:07;;;;;;;9.73;4.32;;;12.10;99.90;;;;;;6148799;23;20214;-73
2021/09/19 04:24:32;;;;;;;;;;;12.10;99.90;;;;;;6148394;23;20005;-74
2021/09/19 04:26:58;;;;;;;6.45;3.95;;;12.00;99.90;;;;;;6148787;23;20248;-74
2021/09/19 04:29:23;;;;;;;;;;;12.00;99.90;;;;;;6147196;23;20488;-74
2021/09/19 04:31:49;;;;;;;8.90;5.07;;;11.90;99.90;;;;;;6149087;23;19904;-73
2021/09/19 04:34:14;;;;;;;;;;;11.90;99.90;;;;;;6150280;23;20014;-74
2021/09/19 04:36:39;;;;;;;5.65;3.45;;;11.90;99.90;;;;;;6148321;23;19992;-73
2021/09/19 04:39:05;;;;;;;;;;;11.90;99.90;;;;;;6151158;23;20372;-73
2021/09/19 04:41:30;;;;;;;4.80;3.03;;;11.90;99.90;;;;;;6148615;23;20376;-73
2021/09/19 04:43:56;;;;;;;;;;;12.00;99.90;;;;;;6150440;23;20059;-74
2021/09/19 04:46:21;;;;;;;5.82;4.07;;;12.00;99.90;;;;;;6149236;23;19927;-73
2021/09/19 04:48:47;;;;;;;;;;;11.90;99.90;;;;;;6147984;23;20469;-74
2021/09/19 04:51:12;;;;;;;8.57;3.90;;;11.90;99.90;;;;;;6150065;23;19955;-73
2021/09/19 04:53:38;;;;;;;;;;;11.90;99.90;;;;;;6148356;23;20002;-73
2021/09/19 04:56:03;;;;;;;8.25;4.35;;;11.90;99.90;;;;;;6149986;23;19967;-74
2021/09/19 04:58:29;;;;;;;;;;;11.90;99.90;;;;;;6150193;23;20005;-75
2021/09/19 05:00:54;;;;;;;7.70;4.28;;;11.90;99.90;;;;;;6149119;23;19904;-75
2021/09/19 05:03:20;;;;;;;;;;;11.90;99.90;;;;;;6146990;23;20001;-76
2021/09/19 05:05:45;;;;;;;8.70;4.25;;;11.90;99.90;;;;;;6149233;23;19904;-76
2021/09/19 05:08:11;;;;;;;;;;;11.90;99.90;;;;;;6150200;23;20058;-76
2021/09/19 05:10:36;;;;;;;5.78;3.85;;;11.90;99.90;;;;;;6150008;23;19951;-76
2021/09/19 05:13:01;;;;;;;;;;;11.90;99.90;;;;;;6150457;23;20331;-75
2021/09/19 05:15:27;;;;;;;7.22;4.00;;;11.90;99.90;;;;;;6148127;23;20376;-75
2021/09/19 05:17:52;;;;;;;;;;;11.90;99.90;;;;;;6150664;23;20017;-76
2021/09/19 05:20:18;;;;;;;6.38;3.83;;;11.90;99.90;;;;;;6147930;23;19972;-76
2021/09/19 05:22:43;;;;;;;;;;;11.80;99.90;;;;;;6150112;23;20133;-76
2021/09/19 05:25:09;;;;;;;6.65;3.97;;;11.80;99.90;;;;;;6148288;23;19907;-76
2021/09/19 05:27:34;;;;;;;;;;;11.80;99.90;;;;;;6150241;23;20355;-76
2021/09/19 05:30:00;;;;;;;8.15;4.00;;;11.80;99.90;;;;;;6149645;23;19904;-76
2021/09/19 05:32:25;;;;;;;;;;;11.90;99.90;;;;;;6150103;23;20002;-76
2021/09/19 05:34:51;;;;;;;6.38;3.88;;;11.90;99.90;;;;;;6147736;23;19905;-76
2021/09/19 05:37:16;;;;;;;;;;;11.90;99.90;;;;;;6149986;23;20081;-76
2021/09/19 05:39:42;;;;;;;5.75;3.72;;;11.90;99.90;;;;;;6147487;23;19908;-75
2021/09/19 05:42:07;;;;;;;;;;;11.80;99.90;;;;;;6150400;23;20005;-76
2021/09/19 05:44:33;;;;;;;8.38;4.72;;;11.80;99.90;;;;;;6148655;23;20008;-76
2021/09/19 05:46:58;;;;;;;;;;;11.80;99.90;;;;;;6150593;23;20450;-75
2021/09/19 05:49:24;;;;;;;5.18;3.80;;;11.90;99.90;;;;;;6149295;23;19909;-75
2021/09/19 05:51:49;;;;;;;;;;;11.90;99.90;;;;;;6148915;23;20443;-76
2021/09/19 05:54:15;;;;;;;6.90;3.05;;;11.90;99.90;;;;;;6148712;23;19942;-75
2021/09/19 05:56:40;;;;;;;;;;;11.90;99.90;;;;;;6149202;23;20009;-75
2021/09/19 05:59:06;;;;;;;4.35;3.15;;;11.90;99.90;;;;;;6150700;23;20409;-74
2021/09/19 06:01:31;;;;;;;;;;;11.90;99.90;;;;;;6147676;23;20607;-75
2021/09/19 06:03:56;;;;;;;7.78;3.47;;;11.90;99.90;;;;;;6147988;23;19905;-75
2021/09/19 06:06:22;;;;;;;;;;;11.90;99.90;;;;;;6149109;23;20005;-75
2021/09/19 06:08:47;;;;;;;6.25;3.42;;;11.90;99.90;;;;;;6149794;23;19904;-75
2021/09/19 06:11:13;;;;;;;;;;;11.90;99.90;;;;;;6149006;23;20039;-75
2021/09/19 06:13:38;;;;;;;6.78;4.55;;;11.90;99.90;;;;;;6148749;23;19971;-75
2021/09/19 06:16:04;;;;;;;;;;;11.90;99.90;;;;;;6150241;23;20009;-75
2021/09/19 06:18:31;;;;;;;8.85;4.53;;;11.90;99.90;;;;;;6147987;23;19904;-75
2021/09/19 06:20:57;;;;;;;7.07;4.30;;;11.90;99.90;;;;;;6150009;23;20036;-75
2021/09/19 06:23:22;;;;;;;;;;;11.90;99.90;;;;;;6149636;23;20001;-75
2021/09/19 06:25:48;;;;;;;4.80;3.17;;;12.00;99.90;;;;;;6147545;23;20015;-76
2021/09/19 06:28:13;;;;;;;;;;;12.00;99.90;;;;;;6148689;23;20036;-75
2021/09/19 06:30:39;;;;;;;14.52;5.50;;;12.00;99.90;;;;;;6149347;23;19904;-75
2021/09/19 06:33:04;;;;;;;;;;;12.00;99.90;;;;;;6149865;23;20016;-75
2021/09/19 06:35:30;;;;;;;11.48;5.68;;;12.00;99.90;;;;;;6145713;23;19913;-76
2021/09/19 06:37:55;;;;;;;;;;;12.00;99.90;;;;;;6149713;23;20012;-76
2021/09/19 06:40:21;;;;;;;7.18;4.00;;;12.00;99.90;;;;;;6148131;23;20356;-76
2021/09/19 06:42:46;;;;;;;;;;;12.00;99.90;;;;;;6147249;23;20012;-74
2021/09/19 06:45:12;;;;;;;6.32;3.30;;;12.10;99.90;;;;;;6147996;23;19950;-73
2021/09/19 06:47:40;;;;;;;;;;;12.10;99.90;;;;;;6149675;23;20009;-73
2021/09/19 06:50:07;;;;;;;6.13;3.30;;;12.10;99.90;;;;;;6147908;23;20325;-73
2021/09/19 06:52:33;;;;;;;5.68;3.95;;;12.20;99.90;;;;;;6149138;23;20002;-73
2021/09/19 06:54:58;;;;;;;;;;;12.20;99.90;;;;;;6147818;23;20338;-73
2021/09/19 06:57:24;;;;;;;6.63;3.53;;;12.20;99.90;;;;;;6147306;23;19911;-73
2021/09/19 06:59:49;;;;;;;;;;;12.20;99.90;;;;;;6150261;23;20020;-73
2021/09/19 07:02:15;;;;;;;4.45;3.25;;;12.20;99.90;;;;;;6147846;23;19900;-73
2021/09/19 07:04:40;;;;;;;;;;;12.30;99.90;;;;;;6147722;23;20010;-74
2021/09/19 07:07:06;;;;;;;8.15;4.13;;;12.30;99.90;;;;;;6148802;23;19900;-70
2021/09/19 07:09:31;;;;;;;;;;;12.30;99.90;;;;;;6148483;23;20008;-70
2021/09/19 07:11:57;;;;;;;10.18;4.57;;;12.30;99.90;;;;;;6148297;23;20312;-70
2021/09/19 07:14:22;;;;;;;;;;;12.30;99.90;;;;;;6148632;23;20120;-70
2021/09/19 07:16:47;;;;;;;8.68;3.53;;;12.30;99.90;;;;;;6146768;23;19912;-70
2021/09/19 07:19:13;;;;;;;;;;;12.40;99.90;;;;;;6149384;23;20028;-71
2021/09/19 07:21:39;;;;;;;8.13;4.68;;;12.40;99.90;;;;;;6149104;23;20340;-70
2021/09/19 07:24:04;;;;;;;;;;;12.40;99.90;;;;;;6148377;23;20005;-71
2021/09/19 07:26:29;;;;;;;11.70;3.85;;;12.50;99.90;;;;;;6148475;23;20294;-70
2021/09/19 07:28:55;;;;;;;;;;;12.50;99.90;;;;;;6148954;23;19998;-70
2021/09/19 07:31:21;;;;;;;6.75;6.10;;;12.50;99.90;;;;;;6148055;23;19909;-70
2021/09/19 07:33:46;;;;;;;;;;;12.50;99.90;;;;;;6148631;23;20029;-70
2021/09/19 07:36:12;;;;;;;10.23;3.90;;;12.50;99.90;;;;;;6148795;23;19939;-70
2021/09/19 07:38:38;;;;;;;;;;;12.50;99.90;;;;;;6149029;23;20080;-70
2021/09/19 07:41:04;;;;;;;6.63;3.38;;;12.50;99.90;;;;;;6148143;23;19994;-70
2021/09/19 07:43:29;;;;;;;;;;;12.50;99.90;;;;;;6148783;23;20494;-70
2021/09/19 07:45:55;;;;;;;5.75;3.95;;;12.60;99.90;;;;;;6149141;23;20373;-74
2021/09/19 07:48:21;;;;;;;;;;;12.60;99.80;;;;;;6148978;23;20001;-73
2021/09/19 07:50:47;;;;;;;7.03;4.18;;;12.50;99.50;;;;;;6148759;23;19955;-77
2021/09/19 07:53:13;;;;;;;;;;;12.60;99.70;;;;;;6148971;23;19998;-78
2021/09/19 07:55:38;;;;;;;7.93;4.07;;;12.60;99.70;;;;;;6147350;23;19904;-75
2021/09/19 07:58:04;;;;;;;;;;;12.60;99.70;;;;;;6148221;23;20108;-73
2021/09/19 08:00:30;;;;;;;6.43;3.47;;;12.70;99.60;;;;;;6147998;23;19900;-73
2021/09/19 08:02:55;;;;;;;;;;;12.70;99.50;;;;;;6149388;23;20009;-75
2021/09/19 08:05:22;;;;;;;6.93;4.28;;;12.80;99.50;;;;;;6149510;23;19901;-76
2021/09/19 08:07:48;;;;;;;8.95;4.60;;;12.80;99.60;;;;;;6151564;23;20006;-76
2021/09/19 08:10:13;;;;;;;;;;;12.80;99.40;;;;;;6150036;23;20076;-76
2021/09/19 08:12:41;;;;;;;11.60;4.00;;;12.90;99.30;;;;;;6151130;23;19987;-75
2021/09/19 08:15:07;;;;;;;8.40;3.63;;;12.90;99.30;;;;;;6149474;23;20005;-76
2021/09/19 08:17:33;;;;;;;4.13;3.72;;;12.90;98.80;;;;;;6149927;23;20017;-76
2021/09/19 08:19:58;;;;;;;;;;;12.90;98.80;;;;;;6151082;23;19993;-77
2021/09/19 08:22:24;;;;;;;4.25;3.78;;;12.90;98.90;;;;;;6149204;23;19916;-77
2021/09/19 08:24:50;;;;;;;;;;;12.80;98.80;;;;;;6150674;23;20084;-78
2021/09/19 08:27:15;;;;;;;6.50;5.07;;;12.90;98.80;;;;;;6150239;23;19904;-77
2021/09/19 08:29:41;;;;;;;;;;;12.90;98.80;;;;;;6151224;23;20347;-77
2021/09/19 08:32:06;;;;;;;6.07;3.65;;;13.00;98.90;;;;;;6150614;23;19912;-76
2021/09/19 08:34:32;;;;;;;;;;;13.00;98.80;;;;;;6148232;23;19997;-76
2021/09/19 08:36:58;;;;;;;7.80;4.75;;;13.10;98.60;;;;;;6151154;23;19909;-77
2021/09/19 08:39:24;;;;;;;4.40;3.70;;;13.00;98.30;;;;;;6150670;23;20504;-75
2021/09/19 08:41:50;;;;;;;;;;;13.10;98.30;;;;;;6151285;23;20006;-74
2021/09/19 08:44:18;;;;;;;9.25;3.85;;;13.10;98.50;;;;;;6149143;23;19979;-74
2021/09/19 08:46:45;;;;;;;7.68;3.20;;;13.20;98.50;;;;;;6150300;23;20010;-75
2021/09/19 08:49:12;;;;;;;10.35;4.07;;;13.30;98.10;;;;;;6148365;23;20041;-75
2021/09/19 08:51:38;;;;;;;4.95;3.72;;;13.20;97.70;;;;;;6150536;23;20066;-75
2021/09/19 08:54:03;;;;;;;;;;;13.20;97.40;;;;;;6149027;23;20009;-75
2021/09/19 08:56:29;;;;;;;6.78;3.50;;;13.20;97.70;;;;;;6150111;23;19911;-74
2021/09/19 08:58:55;;;;;;;;;;;13.30;97.50;;;;;;6148007;23;20005;-74
2021/09/19 09:01:21;;;;;;;8.40;2.97;;;13.30;97.50;;;;;;6147952;23;19904;-75
2021/09/19 09:03:46;;;;;;;;;;;13.30;97.50;;;;;;6147594;23;20319;-74
2021/09/19 09:06:14;;;;;;;5.45;3.97;;;13.40;97.60;;;;;;6148204;23;19912;-75
2021/09/19 09:08:41;;;;;;;4.88;3.00;;;13.50;97.70;;;;;;6150151;23;20034;-74
2021/09/19 09:11:07;;;;;;;4.05;3.13;;;13.50;97.50;;;;;;6145034;23;20091;-75
2021/09/19 09:13:38;;;;;;;9.07;3.97;;;13.50;97.50;;;;;;6146850;23;20006;-72
2021/09/19 09:16:12;;;;;;;8.07;3.58;;;13.50;97.30;;;;;;6148417;23;20068;-71
2021/09/19 09:18:38;;;;;;;9.05;3.85;;;13.60;97.50;;;;;;6146976;23;20016;-71
2021/09/19 09:21:09;;;;;;;5.32;4.03;;;13.60;97.30;;;;;;6148736;23;20136;-74
2021/09/19 09:23:46;;;;;;;6.35;3.40;;;13.60;97.30;;;;;;6149316;23;20041;-74
2021/09/19 09:26:14;;;;;;;5.22;3.55;;;13.60;97.30;;;;;;6148345;23;20493;-75
2021/09/19 09:28:44;;;;;;;6.47;3.63;;;13.70;97.40;;;;;;6149077;23;20009;-77
2021/09/19 09:31:11;;;;;;;6.95;3.60;;;13.70;97.40;;;;;;6146146;23;20036;-76
2021/09/19 09:33:37;;;;;;;6.35;3.58;;;13.70;97.00;;;;;;6148801;23;20005;-75
2021/09/19 09:36:07;;;;;;;;;;;13.70;97.00;;;;;;6147879;23;20351;-75
2021/09/19 09:38:32;;;;;;;4.93;3.17;;;13.70;97.10;;;;;;6148873;23;20249;-72
2021/09/19 09:40:58;;;;;;;;;;;13.70;96.70;;;;;;6149025;23;20007;-72
2021/09/19 09:43:23;;;;;;;5.15;3.47;;;13.70;96.70;;;;;;6148540;23;19906;-70
2021/09/19 09:45:51;;;;;;;8.57;2.95;;;13.70;96.90;;;;;;6148756;23;20009;-72
2021/09/19 09:48:24;;;;;;;5.47;3.75;;;13.70;96.70;;;;;;6149444;23;20005;-72
2021/09/19 09:50:57;;;;;;;7.82;5.07;;;13.70;96.60;;;;;;6147885;23;20005;-71
2021/09/19 09:53:24;;;;;;;6.50;4.68;;;13.70;96.70;;;;;;6147877;23;20005;-73
2021/09/19 09:55:51;;;;;;;5.53;4.28;;;13.80;96.70;;;;;;6145893;23;20006;-75
2021/09/19 09:58:18;;;;;;;4.30;2.50;;;13.90;96.60;;;;;;6147802;23;20009;-75
2021/09/19 10:00:54;;;;;;;6.25;3.40;;;14.00;96.50;;;;;;6148227;23;20468;-73
2021/09/19 10:03:20;;;;;;;5.43;3.70;;;14.00;96.00;;;;;;6149207;23;20009;-73
2021/09/19 10:05:47;;;;;;;11.50;5.50;;;14.10;96.00;;;;;;6147794;23;20233;-70
2021/09/19 10:08:13;;;;;;;10.38;7.68;;;14.10;96.10;;;;;;6147526;23;20006;-69
2021/09/19 10:10:41;;;;;;;5.22;3.33;;;14.10;95.20;;;;;;6147421;23;20005;-70
2021/09/19 10:13:08;;;;;;;4.57;3.45;;;14.10;95.30;;;;;;6148220;23;20024;-70
2021/09/19 10:15:35;;;;;;;6.07;3.30;;;14.10;95.40;;;;;;6147295;23;20077;-69
2021/09/19 10:18:01;;;;;;;4.35;3.38;;;14.10;95.30;;;;;;6148283;23;20136;-69
2021/09/19 10:20:26;;;;;;;;;;;14.10;95.00;;;;;;6147531;23;20044;-70
2021/09/19 10:22:57;;;;;;;19.80;10.15;;;14.10;95.20;;;;;;6147393;23;19900;-70
2021/09/19 10:25:26;;;;;;;9.65;6.03;;;14.10;94.70;;;;;;6146521;23;20007;-71
2021/09/19 10:28:12;;;;;;;6.72;4.15;;;14.10;94.70;;;;;;6147678;23;20011;-71
2021/09/19 10:30:37;;;;;;;27.85;15.45;;;14.10;94.90;;;;;;6146916;23;20010;-72
2021/09/19 10:33:22;;;;;;;;;;;14.30;95.00;;;;;;6148414;23;20088;-70
2021/09/19 10:35:51;;;;;;;9.85;5.45;;;14.30;93.90;;;;;;6146832;23;19971;-70
2021/09/19 10:38:37;;;;;;;3.08;2.42;;;14.30;93.60;;;;;;6147946;23;20005;-71
2021/09/19 10:41:17;;;;;;;41.63;22.60;;;14.30;93.80;;;;;;6146533;23;20017;-71
2021/09/19 10:43:59;;;;;;;9.18;6.28;;;14.30;93.90;;;;;;6147785;23;20108;-71
2021/09/19 10:46:38;;;;;;;7.32;4.38;;;14.40;93.90;;;;;;6147214;23;20001;-71
2021/09/19 10:49:16;;;;;;;7.93;4.13;;;14.50;94.00;;;;;;6147200;23;20021;-71
2021/09/19 10:52:00;;;;;;;4.47;2.72;;;14.70;94.00;;;;;;6145884;23;20010;-71
2021/09/19 10:54:50;;;;;;;6.70;5.18;;;14.80;93.80;;;;;;6147337;23;20553;-71
2021/09/19 10:57:20;;;;;;;14.60;5.35;;;15.00;93.80;;;;;;6146097;23;20157;-72
2021/09/19 11:00:08;;;;;;;6.35;4.88;;;15.10;93.80;;;;;;6146745;23;20398;-71
2021/09/19 11:02:39;;;;;;;3.72;2.95;;;15.30;91.90;;;;;;6143856;23;20070;-71
2021/09/19 11:05:25;;;;;;;4.55;2.75;;;15.20;92.20;;;;;;6145009;23;20006;-71
2021/09/19 11:08:03;;;;;;;13.17;8.67;;;15.20;92.30;;;;;;6146622;23;20016;-71
2021/09/19 11:10:30;;;;;;;6.00;3.08;;;15.20;92.50;;;;;;6146835;23;20012;-71
2021/09/19 11:12:55;;;;;;;3.28;2.20;;;15.20;91.30;;;;;;6145875;23;20021;-70
2021/09/19 11:15:22;;;;;;;;;;;15.00;89.70;;;;;;6146694;23;20014;-70
2021/09/19 11:17:50;;;;;;;4.80;1.88;;;14.80;90.30;;;;;;6146779;23;19904;-71
2021/09/19 11:20:22;;;;;;;6.28;2.92;;;14.60;90.80;;;;;;6146391;23;20434;-69
2021/09/19 11:22:52;;;;;;;5.15;2.65;;;14.50;91.40;;;;;;6147219;23;20071;-70
2021/09/19 11:25:20;;;;;;;5.68;2.30;;;14.50;91.50;;;;;;6143542;23;20006;-71
2021/09/19 11:27:51;;;;;;;4.50;3.35;;;14.50;91.80;;;;;;6147622;23;20014;-71
2021/09/19 11:30:28;;;;;;;5.85;2.00;;;14.40;91.60;;;;;;6146866;23;20132;-71
2021/09/19 11:32:53;;;;;;;4.10;2.42;;;14.50;91.50;;;;;;6147543;23;20040;-71
2021/09/19 11:35:19;;;;;;;;;;;14.30;91.60;;;;;;6146541;23;20006;-72
2021/09/19 11:37:44;;;;;;;16.75;8.70;;;14.30;91.90;;;;;;6145602;23;19963;-72
2021/09/19 11:40:21;;;;;;;;;;;14.40;92.10;;;;;;6146858;23;20089;-73
2021/09/19 11:42:46;;;;;;;7.05;5.03;;;14.50;92.60;;;;;;6144901;23;20129;-72
2021/09/19 11:45:11;;;;;;;;;;;14.60;92.70;;;;;;6146564;23;20355;-71
2021/09/19 11:47:40;;;;;;;9.40;5.70;;;14.80;92.70;;;;;;6145899;23;19904;-72
2021/09/19 11:50:07;;;;;;;10.63;6.80;;;14.70;91.80;;;;;;6146194;23;20006;-71
2021/09/19 11:52:33;;;;;;;9.63;5.22;;;14.70;92.00;;;;;;6145951;23;20091;-73
2021/09/19 11:54:58;;;;;;;;;;;14.70;92.20;;;;;;6146005;23;20453;-74
2021/09/19 11:57:24;;;;;;;8.80;7.50;;;14.80;92.20;;;;;;6145431;23;19900;-74
2021/09/19 11:59:49;;;;;;;7.85;5.53;;;14.90;92.20;;;;;;6146747;23;20052;-74
2021/09/19 12:02:16;;;;;;;10.80;4.65;;;15.00;92.40;;;;;;6146382;23;20016;-74
2021/09/19 12:04:46;;;;;;;17.80;12.55;;;15.20;92.50;;;;;;6145852;23;20088;-73
2021/09/19 12:07:13;;;;;;;4.07;2.90;;;15.30;92.00;;;;;;6146533;23;20017;-72
2021/09/19 12:09:57;;;;;;;5.53;3.78;;;15.40;91.80;;;;;;6147101;23;20190;-73
2021/09/19 12:12:23;;;;;;;6.18;3.88;;;15.50;91.70;;;;;;6142634;23;20013;-72
2021/09/19 12:14:50;;;;;;;;;;;15.60;91.70;;;;;;6144756;23;20458;-73
2021/09/19 12:17:21;;;;;;;6.50;2.88;;;15.70;91.30;;;;;;6147130;23;19923;-72
2021/09/19 12:19:48;;;;;;;6.45;2.08;;;15.70;90.40;;;;;;6145268;23;20435;-72
2021/09/19 12:22:23;;;;;;;6.88;2.70;;;15.70;89.70;;;;;;6147056;23;20079;-72
2021/09/19 12:25:06;;;;;;;7.88;2.83;;;15.60;89.70;;;;;;6144767;23;20039;-73
2021/09/19 12:27:34;;;;;;;6.32;3.47;;;15.60;89.80;;;;;;6145292;23;20339;-73
2021/09/19 12:30:13;;;;;;;5.70;3.42;;;15.60;89.70;;;;;;6146242;23;20076;-73
2021/09/19 12:32:49;;;;;;;7.65;3.70;;;15.70;90.10;;;;;;6146328;23;20318;-74
2021/09/19 12:35:31;;;;;;;3.13;1.88;;;15.70;87.30;;;;;;6145051;23;20029;-71
2021/09/19 12:37:59;;;;;;;8.18;2.00;;;15.70;87.00;;;;;;6146799;23;20001;-69
2021/09/19 12:40:27;;;;;;;6.50;2.53;;;15.70;86.80;;;;;;6146642;23;20001;-72
2021/09/19 12:43:05;;;;;;;29.05;21.42;;;15.60;87.70;;;;;;6146156;23;20025;-73
2021/09/19 12:45:30;;;;;;;8.32;5.93;;;15.60;86.70;;;;;;6144159;23;20055;-71
2021/09/19 12:47:56;;;;;;;4.40;3.08;;;15.50;85.20;;;;;;6146941;23;20494;-71
2021/09/19 12:50:24;;;;;;;5.38;3.28;;;15.40;85.40;;;;;;6145862;23;20408;-71
2021/09/19 12:52:54;;;;;;;4.38;2.58;;;15.30;85.90;;;;;;6147168;23;20085;-71
2021/09/19 12:55:20;;;;;;;5.80;3.83;;;15.40;87.10;;;;;;6146423;23;20036;-71
2021/09/19 12:57:47;;;;;;;5.82;4.03;;;15.40;86.40;;;;;;6148481;23;20135;-71
2021/09/19 13:00:14;;;;;;;3.72;2.83;;;15.50;85.70;;;;;;6149208;23;19998;-70
2021/09/19 13:02:39;;;;;;;6.72;3.30;;;15.50;84.90;;;;;;6145317;23;20041;-71
2021/09/19 13:05:06;;;;;;;7.07;4.15;;;15.40;85.80;;;;;;6148469;23;20171;-71
2021/09/19 13:07:31;;;;;;;7.25;5.00;;;15.50;85.10;;;;;;6147229;23;20001;-71
2021/09/19 13:09:57;;;;;;;8.02;5.63;;;15.40;86.00;;;;;;6149377;23;20383;-71
2021/09/19 13:12:25;;;;;;;6.22;3.50;;;15.40;84.10;;;;;;6148172;23;20085;-71